createdAt,value
2018-08-18T00:00:08.189Z,1006.34
2018-08-18T00:01:08.208Z,1006.32
2018-08-18T00:02:08.227Z,1006.32
2018-08-18T00:03:08.253Z,1006.33
2018-08-18T00:04:08.266Z,1006.35
2018-08-18T00:05:08.305Z,1006.33
2018-08-18T00:06:08.306Z,1006.37
2018-08-18T00:07:08.327Z,1006.39
2018-08-18T00:08:08.350Z,1006.39
2018-08-18T00:09:08.367Z,1006.41
2018-08-18T00:10:08.386Z,1006.41
2018-08-18T00:11:08.408Z,1006.39
2018-08-18T00:12:08.431Z,1006.41
2018-08-18T00:13:08.446Z,1006.45
2018-08-18T00:14:08.465Z,1006.48
2018-08-18T00:15:08.485Z,1006.46
2018-08-18T00:16:08.509Z,1006.46
2018-08-18T00:17:08.524Z,1006.45
2018-08-18T00:18:08.544Z,1006.45
2018-08-18T00:19:08.642Z,1006.45
2018-08-18T00:20:08.593Z,1006.50
2018-08-18T00:21:08.603Z,1006.49
2018-08-18T00:22:08.624Z,1006.49
2018-08-18T00:23:08.650Z,1006.50
2018-08-18T00:24:08.665Z,1006.49
2018-08-18T00:25:08.684Z,1006.50
2018-08-18T00:26:08.752Z,1006.51
2018-08-18T00:27:08.724Z,1006.54
2018-08-18T00:28:08.744Z,1006.53
2018-08-18T00:29:08.762Z,1006.56
2018-08-18T00:30:08.783Z,1006.55
2018-08-18T00:31:08.808Z,1006.58
2018-08-18T00:32:08.821Z,1006.55
2018-08-18T00:33:08.844Z,1006.56
2018-08-18T00:34:08.910Z,1006.56
2018-08-18T00:35:08.879Z,1006.52
2018-08-18T00:36:08.918Z,1006.54
2018-08-18T00:37:08.924Z,1006.58
2018-08-18T00:38:08.942Z,1006.52
2018-08-18T00:39:08.964Z,1006.51
2018-08-18T00:40:08.985Z,1006.52
2018-08-18T00:41:08.999Z,1006.54
2018-08-18T00:42:09.019Z,1006.54
2018-08-18T00:43:09.039Z,1006.52
2018-08-18T00:44:09.060Z,1006.52
2018-08-18T00:45:09.077Z,1006.53
2018-08-18T00:46:09.097Z,1006.53
2018-08-18T00:47:09.121Z,1006.50
2018-08-18T00:48:09.150Z,1006.48
2018-08-18T00:49:09.160Z,1006.47
2018-08-18T00:50:09.175Z,1006.51
2018-08-18T00:51:09.205Z,1006.47
2018-08-18T00:52:09.220Z,1006.48
2018-08-18T00:53:09.236Z,1006.47
2018-08-18T00:54:09.257Z,1006.51
2018-08-18T00:55:09.280Z,1006.54
2018-08-18T00:56:09.306Z,1006.56
2018-08-18T00:57:09.314Z,1006.54
2018-08-18T00:58:09.338Z,1006.57
2018-08-18T00:59:09.353Z,1006.59
2018-08-18T01:00:09.379Z,1006.63
2018-08-18T01:01:09.390Z,1006.66
2018-08-18T01:02:09.418Z,1006.63
2018-08-18T01:03:09.434Z,1006.65
2018-08-18T01:04:09.454Z,1006.65
2018-08-18T01:05:09.472Z,1006.68
2018-08-18T01:06:09.493Z,1006.67
2018-08-18T01:07:09.511Z,1006.70
2018-08-18T01:08:09.533Z,1006.72
2018-08-18T01:09:09.549Z,1006.74
2018-08-18T01:10:09.574Z,1006.70
2018-08-18T01:11:09.771Z,1006.71
2018-08-18T01:12:09.647Z,1006.73
2018-08-18T01:13:09.649Z,1006.75
2018-08-18T01:14:09.755Z,1006.76
2018-08-18T01:15:09.670Z,1006.76
2018-08-18T01:16:09.692Z,1006.78
2018-08-18T01:17:09.713Z,1006.81
2018-08-18T01:18:09.726Z,1006.78
2018-08-18T01:19:09.750Z,1006.79
2018-08-18T01:20:09.768Z,1006.81
2018-08-18T01:21:09.788Z,1006.82
2018-08-18T01:22:09.809Z,1006.80
2018-08-18T01:23:09.828Z,1006.84
2018-08-18T01:24:09.850Z,1006.87
2018-08-18T01:25:09.866Z,1006.87
2018-08-18T01:26:09.892Z,1006.90
2018-08-18T01:27:10.081Z,1006.88
2018-08-18T01:28:09.926Z,1006.88
2018-08-18T01:29:09.944Z,1006.87
2018-08-18T01:30:09.966Z,1006.88
2018-08-18T01:31:09.986Z,1006.83
2018-08-18T01:32:10.011Z,1006.87
2018-08-18T01:33:10.024Z,1006.85
2018-08-18T01:34:10.043Z,1006.82
2018-08-18T01:35:10.067Z,1006.85
2018-08-18T01:36:10.087Z,1006.81
2018-08-18T01:37:10.103Z,1006.81
2018-08-18T01:38:10.123Z,1006.84
2018-08-18T01:39:10.147Z,1006.85
2018-08-18T01:40:10.163Z,1006.80
2018-08-18T01:41:10.181Z,1006.82
2018-08-18T01:42:10.204Z,1006.86
2018-08-18T01:43:10.225Z,1006.85
2018-08-18T01:44:10.241Z,1006.84
2018-08-18T01:45:10.260Z,1006.84
2018-08-18T01:46:10.282Z,1006.87
2018-08-18T01:47:10.302Z,1006.79
2018-08-18T01:48:10.325Z,1006.85
2018-08-18T01:49:10.339Z,1006.83
2018-08-18T01:50:10.360Z,1006.90
2018-08-18T01:51:10.380Z,1006.89
2018-08-18T01:52:10.399Z,1006.86
2018-08-18T01:53:10.423Z,1006.89
2018-08-18T01:54:10.449Z,1006.89
2018-08-18T01:55:10.460Z,1006.87
2018-08-18T01:56:10.480Z,1006.93
2018-08-18T01:57:10.501Z,1006.93
2018-08-18T01:58:10.525Z,1006.90
2018-08-18T01:59:10.539Z,1006.93
2018-08-18T02:00:10.558Z,1006.94
2018-08-18T02:01:10.581Z,1006.91
2018-08-18T02:02:10.599Z,1006.92
2018-08-18T02:03:10.617Z,1006.88
2018-08-18T02:04:10.639Z,1006.91
2018-08-18T02:05:10.657Z,1006.90
2018-08-18T02:06:10.681Z,1006.89
2018-08-18T02:07:10.697Z,1006.88
2018-08-18T02:08:10.717Z,1006.91
2018-08-18T02:09:10.741Z,1006.92
2018-08-18T02:10:10.756Z,1006.91
2018-08-18T02:11:10.777Z,1006.93
2018-08-18T02:12:10.797Z,1006.92
2018-08-18T02:13:10.815Z,1006.91
2018-08-18T02:14:10.856Z,1006.91
2018-08-18T02:15:10.855Z,1006.85
2018-08-18T02:16:10.882Z,1006.89
2018-08-18T02:17:10.896Z,1006.87
2018-08-18T02:18:10.915Z,1006.90
2018-08-18T02:19:10.937Z,1006.93
2018-08-18T02:20:10.954Z,1006.97
2018-08-18T02:21:10.976Z,1006.94
2018-08-18T02:22:10.996Z,1006.95
2018-08-18T02:23:11.016Z,1006.93
2018-08-18T02:24:11.035Z,1006.94
2018-08-18T02:25:11.052Z,1006.92
2018-08-18T02:26:11.072Z,1006.93
2018-08-18T02:27:11.093Z,1006.90
2018-08-18T02:28:11.117Z,1006.91
2018-08-18T02:29:11.134Z,1006.92
2018-08-18T02:30:11.151Z,1006.91
2018-08-18T02:31:11.172Z,1006.91
2018-08-18T02:32:11.195Z,1006.93
2018-08-18T02:33:11.215Z,1006.90
2018-08-18T02:34:11.233Z,1006.89
2018-08-18T02:35:11.257Z,1006.89
2018-08-18T02:36:11.272Z,1006.87
2018-08-18T02:37:11.291Z,1006.92
2018-08-18T02:38:11.313Z,1006.93
2018-08-18T02:39:11.331Z,1006.94
2018-08-18T02:40:11.445Z,1006.95
2018-08-18T02:41:11.370Z,1006.95
2018-08-18T02:42:11.392Z,1006.97
2018-08-18T02:43:11.415Z,1006.98
2018-08-18T02:44:11.432Z,1006.91
2018-08-18T02:45:11.449Z,1006.92
2018-08-18T02:46:11.469Z,1006.91
2018-08-18T02:47:11.492Z,1006.92
2018-08-18T02:48:11.553Z,1006.93
2018-08-18T02:49:11.531Z,1006.90
2018-08-18T02:50:11.552Z,1006.90
2018-08-18T02:51:11.573Z,1006.87
2018-08-18T02:52:11.748Z,1006.86
2018-08-18T02:53:11.609Z,1006.88
2018-08-18T02:54:11.628Z,1006.85
2018-08-18T02:55:11.648Z,1006.82
2018-08-18T02:56:11.671Z,1006.82
2018-08-18T02:57:11.688Z,1006.80
2018-08-18T02:58:11.707Z,1006.80
2018-08-18T02:59:11.737Z,1006.82
2018-08-18T03:00:11.749Z,1006.82
2018-08-18T03:01:11.774Z,1006.84
2018-08-18T03:02:11.788Z,1006.84
2018-08-18T03:03:11.806Z,1006.83
2018-08-18T03:04:11.827Z,1006.84
2018-08-18T03:05:11.845Z,1006.80
2018-08-18T03:06:11.870Z,1006.84
2018-08-18T03:07:11.888Z,1006.87
2018-08-18T03:08:11.907Z,1006.87
2018-08-18T03:09:11.927Z,1006.85
2018-08-18T03:10:11.948Z,1006.86
2018-08-18T03:11:11.966Z,1006.83
2018-08-18T03:12:11.987Z,1006.85
2018-08-18T03:13:12.004Z,1006.83
2018-08-18T03:14:12.022Z,1006.84
2018-08-18T03:15:12.046Z,1006.86
2018-08-18T03:16:12.065Z,1006.86
2018-08-18T03:17:12.083Z,1006.87
2018-08-18T03:18:12.103Z,1006.88
2018-08-18T03:19:12.124Z,1006.85
2018-08-18T03:20:12.149Z,1006.90
2018-08-18T03:21:12.165Z,1006.89
2018-08-18T03:22:12.190Z,1006.91
2018-08-18T03:23:12.217Z,1006.95
2018-08-18T03:24:12.226Z,1006.92
2018-08-18T03:25:12.253Z,1006.93
2018-08-18T03:26:12.260Z,1006.93
2018-08-18T03:27:12.282Z,1006.91
2018-08-18T03:28:12.301Z,1006.94
2018-08-18T03:29:12.346Z,1006.94
2018-08-18T03:30:12.342Z,1006.96
2018-08-18T03:31:12.364Z,1006.97
2018-08-18T03:32:12.384Z,1006.96
2018-08-18T03:33:12.418Z,1007.01
2018-08-18T03:34:12.428Z,1007.02
2018-08-18T03:35:12.448Z,1006.99
2018-08-18T03:36:12.463Z,1006.99
2018-08-18T03:37:12.544Z,1007.01
2018-08-18T03:38:12.493Z,1007.01
2018-08-18T03:39:12.517Z,1007.01
2018-08-18T03:40:12.558Z,1007.04
2018-08-18T03:41:12.596Z,1007.04
2018-08-18T03:42:12.572Z,1007.03
2018-08-18T03:43:12.606Z,1007.03
2018-08-18T03:44:12.614Z,1007.03
2018-08-18T03:45:12.743Z,1007.05
2018-08-18T03:46:12.664Z,1007.04
2018-08-18T03:47:12.984Z,1007.06
2018-08-18T03:48:12.949Z,1007.06
2018-08-18T03:49:12.794Z,1007.08
2018-08-18T03:50:12.987Z,1007.05
2018-08-18T03:51:12.859Z,1007.05
2018-08-18T03:52:13.568Z,1007.11
2018-08-18T03:53:13.019Z,1007.10
2018-08-18T03:54:12.860Z,1007.09
2018-08-18T03:55:13.037Z,1007.08
2018-08-18T03:56:12.892Z,1007.09
2018-08-18T03:57:12.875Z,1007.06
2018-08-18T03:58:12.948Z,1007.04
2018-08-18T03:59:13.137Z,1007.08
2018-08-18T04:00:13.085Z,1007.10
2018-08-18T04:01:12.975Z,1007.12
2018-08-18T04:02:13.059Z,1007.14
2018-08-18T04:03:13.094Z,1007.13
2018-08-18T04:04:13.031Z,1007.12
2018-08-18T04:05:13.023Z,1007.13
2018-08-18T04:06:13.050Z,1007.13
2018-08-18T04:07:13.068Z,1007.13
2018-08-18T04:08:13.093Z,1007.16
2018-08-18T04:09:13.177Z,1007.20
2018-08-18T04:10:13.126Z,1007.22
2018-08-18T04:11:13.133Z,1007.22
2018-08-18T04:12:13.160Z,1007.23
2018-08-18T04:13:13.188Z,1007.23
2018-08-18T04:14:13.238Z,1007.24
2018-08-18T04:15:13.226Z,1007.21
2018-08-18T04:16:13.260Z,1007.22
2018-08-18T04:17:13.300Z,1007.26
2018-08-18T04:18:13.326Z,1007.28
2018-08-18T04:19:13.289Z,1007.28
2018-08-18T04:20:13.306Z,1007.28
2018-08-18T04:21:13.323Z,1007.28
2018-08-18T04:22:13.369Z,1007.32
2018-08-18T04:23:13.380Z,1007.33
2018-08-18T04:24:13.383Z,1007.34
2018-08-18T04:25:13.419Z,1007.37
2018-08-18T04:26:13.425Z,1007.40
2018-08-18T04:27:13.436Z,1007.38
2018-08-18T04:28:13.504Z,1007.43
2018-08-18T04:29:13.494Z,1007.41
2018-08-18T04:30:13.523Z,1007.43
2018-08-18T04:31:13.558Z,1007.42
2018-08-18T04:32:13.582Z,1007.39
2018-08-18T04:33:13.563Z,1007.41
2018-08-18T04:34:13.585Z,1007.44
2018-08-18T04:35:13.682Z,1007.46
2018-08-18T04:36:13.662Z,1007.44
2018-08-18T04:37:13.664Z,1007.47
2018-08-18T04:38:13.656Z,1007.51
2018-08-18T04:39:13.695Z,1007.48
2018-08-18T04:40:13.689Z,1007.50
2018-08-18T04:41:13.704Z,1007.54
2018-08-18T04:42:13.726Z,1007.54
2018-08-18T04:43:13.744Z,1007.52
2018-08-18T04:44:13.766Z,1007.57
2018-08-18T04:45:13.781Z,1007.56
2018-08-18T04:46:13.805Z,1007.61
2018-08-18T04:47:13.823Z,1007.61
2018-08-18T04:48:13.840Z,1007.62
2018-08-18T04:49:13.863Z,1007.63
2018-08-18T04:50:13.886Z,1007.59
2018-08-18T04:51:13.899Z,1007.65
2018-08-18T04:52:13.918Z,1007.62
2018-08-18T04:53:13.935Z,1007.63
2018-08-18T04:54:13.962Z,1007.65
2018-08-18T04:55:13.974Z,1007.65
2018-08-18T04:56:13.996Z,1007.65
2018-08-18T04:57:14.015Z,1007.68
2018-08-18T04:58:14.033Z,1007.66
2018-08-18T04:59:14.090Z,1007.75
2018-08-18T05:00:14.076Z,1007.89
2018-08-18T05:01:14.093Z,1007.98
2018-08-18T05:02:14.117Z,1007.98
2018-08-18T05:03:14.135Z,1008.01
2018-08-18T05:04:14.151Z,1008.03
2018-08-18T05:05:14.195Z,1008.03
2018-08-18T05:06:14.190Z,1008.07
2018-08-18T05:07:14.208Z,1008.15
2018-08-18T05:08:14.231Z,1008.15
2018-08-18T05:09:14.252Z,1008.17
2018-08-18T05:10:14.273Z,1008.16
2018-08-18T05:11:14.293Z,1008.05
2018-08-18T05:12:14.313Z,1007.93
2018-08-18T05:13:14.339Z,1007.88
2018-08-18T05:14:14.353Z,1007.86
2018-08-18T05:15:14.373Z,1007.89
2018-08-18T05:16:14.394Z,1008.16
2018-08-18T05:17:14.419Z,1008.32
2018-08-18T05:18:14.441Z,1008.40
2018-08-18T05:19:14.468Z,1008.43
2018-08-18T05:20:14.488Z,1008.40
2018-08-18T05:21:14.503Z,1008.42
2018-08-18T05:22:14.531Z,1008.56
2018-08-18T05:23:14.548Z,1008.55
2018-08-18T05:24:14.569Z,1008.53
2018-08-18T05:25:14.588Z,1008.51
2018-08-18T05:26:14.610Z,1008.57
2018-08-18T05:27:14.637Z,1008.55
2018-08-18T05:28:14.661Z,1008.57
2018-08-18T05:29:14.679Z,1008.58
2018-08-18T05:30:14.705Z,1008.58
2018-08-18T05:31:14.840Z,1008.61
2018-08-18T05:32:14.758Z,1008.68
2018-08-18T05:33:14.770Z,1008.70
2018-08-18T05:35:07.805Z,1008.77
2018-08-18T05:36:07.796Z,1008.79
2018-08-18T05:38:00.872Z,1008.84
2018-08-18T05:39:00.847Z,1008.86
2018-08-18T05:40:53.885Z,1008.89
2018-08-18T05:41:53.874Z,1008.86
2018-08-18T05:43:46.925Z,1008.16
2018-08-18T05:44:46.932Z,1008.40
2018-08-18T05:46:40.033Z,1008.80
2018-08-18T05:47:40.115Z,1008.85
2018-08-18T05:49:33.003Z,1008.59
2018-08-18T05:50:33.022Z,1008.78
2018-08-18T05:52:26.068Z,1008.75
2018-08-18T05:53:26.046Z,1008.78
2018-08-18T05:55:19.071Z,1008.44
2018-08-18T05:56:19.066Z,1008.45
2018-08-18T05:58:12.079Z,1009.30
2018-08-18T05:59:12.093Z,1009.34
2018-08-18T06:00:12.113Z,1009.32
2018-08-18T06:01:12.140Z,1009.41
2018-08-18T06:02:12.171Z,1009.51
2018-08-18T06:03:12.186Z,1009.56
2018-08-18T06:04:12.218Z,1009.67
2018-08-18T06:05:12.234Z,1009.96
2018-08-18T06:06:12.283Z,1009.98
2018-08-18T06:07:12.308Z,1009.99
2018-08-18T06:08:12.311Z,1010.06
2018-08-18T06:09:12.337Z,1010.09
2018-08-18T06:10:12.357Z,1010.15
2018-08-18T06:11:12.381Z,1010.13
2018-08-18T06:12:12.455Z,1010.31
2018-08-18T06:13:12.437Z,1010.46
2018-08-18T06:14:12.458Z,1010.53
2018-08-18T06:15:12.484Z,1010.59
2018-08-18T06:16:12.522Z,1010.79
2018-08-18T06:17:12.533Z,1011.05
2018-08-18T06:18:12.563Z,1011.24
2018-08-18T06:19:12.592Z,1011.40
2018-08-18T06:20:12.613Z,1011.55
2018-08-18T06:21:12.639Z,1012.01
2018-08-18T06:22:12.661Z,1011.96
2018-08-18T06:23:12.692Z,1011.98
2018-08-18T06:24:12.717Z,1012.18
2018-08-18T06:25:12.775Z,1012.47
2018-08-18T06:26:12.768Z,1012.78
2018-08-18T06:27:12.800Z,1012.88
2018-08-18T06:28:12.824Z,1012.79
2018-08-18T06:29:12.847Z,1012.51
2018-08-18T06:30:12.876Z,1011.90
2018-08-18T06:31:12.905Z,1012.57
2018-08-18T06:32:12.932Z,1013.02
2018-08-18T06:33:12.962Z,1012.91
2018-08-18T06:34:12.981Z,1013.37
2018-08-18T06:35:13.012Z,1013.21
2018-08-18T06:36:13.057Z,1012.73
2018-08-18T06:37:13.068Z,1013.23
2018-08-18T06:38:13.095Z,1014.04
2018-08-18T06:39:13.117Z,1014.00
2018-08-18T06:40:13.149Z,1014.19
2018-08-18T06:41:13.290Z,1014.35
2018-08-18T06:42:13.205Z,1014.65
2018-08-18T06:43:13.227Z,1014.53
2018-08-18T06:44:13.254Z,1014.75
2018-08-18T06:45:13.280Z,1015.11
2018-08-18T06:46:13.311Z,1015.76
2018-08-18T06:47:13.336Z,1015.38
2018-08-18T06:48:13.368Z,1014.98
2018-08-18T06:49:13.392Z,1015.42
2018-08-18T06:50:13.424Z,1015.42
2018-08-18T06:51:13.447Z,1015.56
2018-08-18T06:52:13.482Z,1016.28
2018-08-18T06:53:13.506Z,1016.85
2018-08-18T06:54:13.537Z,1016.63
2018-08-18T06:55:13.870Z,1017.09
2018-08-18T06:56:13.595Z,1017.37
2018-08-18T06:57:13.654Z,1017.18
2018-08-18T06:58:13.651Z,1017.32
2018-08-18T06:59:13.675Z,1017.83
2018-08-18T07:00:13.707Z,1018.24
2018-08-18T07:01:13.741Z,1018.81
2018-08-18T07:02:13.763Z,1018.83
2018-08-18T07:03:13.797Z,1019.20
2018-08-18T07:04:13.823Z,1020.09
2018-08-18T07:05:13.848Z,1020.74
2018-08-18T07:06:13.884Z,1020.90
2018-08-18T07:07:13.910Z,1021.50
2018-08-18T07:08:13.940Z,1021.08
2018-08-18T07:09:13.972Z,1021.25
2018-08-18T07:10:13.999Z,1023.00
2018-08-18T07:11:14.079Z,1023.13
2018-08-18T07:12:14.097Z,1023.33
2018-08-18T07:13:14.089Z,1024.81
2018-08-18T07:14:14.116Z,1024.80
2018-08-18T07:15:14.148Z,1024.52
2018-08-18T07:16:14.175Z,1024.51
2018-08-18T07:17:14.216Z,1026.12
2018-08-18T07:18:14.240Z,1026.49
2018-08-18T07:19:14.279Z,1026.81
2018-08-18T07:20:14.335Z,1026.37
2018-08-18T07:21:14.325Z,1025.69
2018-08-18T07:22:14.355Z,1026.82
2018-08-18T07:23:14.380Z,1026.80
2018-08-18T07:24:14.417Z,1027.44
2018-08-18T07:25:14.445Z,1028.24
2018-08-18T07:26:14.479Z,1028.85
2018-08-18T07:27:14.504Z,1030.86
2018-08-18T07:28:14.559Z,1031.67
2018-08-18T07:29:14.556Z,1030.50
2018-08-18T07:30:14.590Z,1029.57
2018-08-18T07:31:14.619Z,1031.44
2018-08-18T07:32:14.647Z,1030.51
2018-08-18T07:33:14.676Z,1028.08
2018-08-18T07:34:14.701Z,1027.48
2018-08-18T07:35:14.738Z,1030.37
2018-08-18T07:36:14.764Z,1029.35
2018-08-18T07:37:14.848Z,1029.88
2018-08-18T07:38:14.818Z,1032.05
2018-08-18T07:39:14.847Z,1031.28
2018-08-18T07:40:14.880Z,1032.05
2018-08-18T07:41:14.906Z,1032.89
2018-08-18T07:42:14.940Z,1031.12
2018-08-18T07:43:14.972Z,1032.42
2018-08-18T07:44:14.995Z,1032.53
2018-08-18T07:45:15.024Z,1033.77
2018-08-18T07:46:15.089Z,1033.73
2018-08-18T07:47:15.088Z,1033.34
2018-08-18T07:48:15.116Z,1033.80
2018-08-18T07:49:15.144Z,1034.24
2018-08-18T07:50:15.174Z,1035.22
2018-08-18T07:51:15.200Z,1036.12
2018-08-18T07:52:15.231Z,1036.79
2018-08-18T07:53:15.353Z,1036.02
2018-08-18T07:54:15.309Z,1034.60
2018-08-18T07:55:15.319Z,1035.51
2018-08-18T07:56:15.350Z,1037.01
2018-08-18T07:57:15.377Z,1035.68
2018-08-18T07:58:15.404Z,1032.77
2018-08-18T07:59:15.435Z,1033.90
2018-08-18T08:00:15.464Z,1035.71
2018-08-18T08:01:15.498Z,1035.62
2018-08-18T08:02:15.524Z,1034.16
2018-08-18T08:03:15.557Z,1035.70
2018-08-18T08:04:15.582Z,1036.23
2018-08-18T08:05:15.613Z,1036.45
2018-08-18T08:06:15.643Z,1034.28
2018-08-18T08:07:15.680Z,1035.11
2018-08-18T08:08:15.697Z,1034.46
2018-08-18T08:09:15.743Z,1033.73
2018-08-18T08:10:15.756Z,1034.22
2018-08-18T08:11:15.787Z,1033.46
2018-08-18T08:12:15.827Z,1034.39
2018-08-18T08:13:15.849Z,1032.94
2018-08-18T08:14:15.876Z,1033.12
2018-08-18T08:15:15.908Z,1034.22
2018-08-18T08:16:15.939Z,1032.76
2018-08-18T08:17:15.970Z,1032.54
2018-08-18T08:18:16.101Z,1032.43
2018-08-18T08:19:16.028Z,1033.29
2018-08-18T08:20:16.058Z,1033.52
2018-08-18T08:21:16.089Z,1032.10
2018-08-18T08:22:16.119Z,1031.65
2018-08-18T08:23:16.141Z,1030.76
2018-08-18T08:24:16.177Z,1030.92
2018-08-18T08:25:16.206Z,1024.14
2018-08-18T08:26:16.234Z,1030.68
2018-08-18T08:27:16.259Z,1030.44
2018-08-18T08:28:16.322Z,1029.36
2018-08-18T08:29:16.348Z,1030.81
2018-08-18T08:30:16.350Z,1029.79
2018-08-18T08:31:16.378Z,1030.46
2018-08-18T08:32:16.409Z,1031.44
2018-08-18T08:33:16.437Z,1030.33
2018-08-18T08:34:16.466Z,1023.87
2018-08-18T08:35:16.499Z,1012.22
2018-08-18T08:36:16.528Z,1008.73
2018-08-18T08:37:16.552Z,1008.76
2018-08-18T08:38:16.579Z,1008.73
2018-08-18T08:39:16.612Z,1008.73
2018-08-18T08:40:16.639Z,1008.67
2018-08-18T08:41:16.657Z,1008.66
2018-08-18T08:42:16.692Z,1008.61
2018-08-18T08:43:16.756Z,1008.56
2018-08-18T08:44:16.738Z,1008.54
2018-08-18T08:45:16.767Z,1008.54
2018-08-18T08:46:16.792Z,1008.49
2018-08-18T08:47:16.819Z,1008.52
2018-08-18T08:48:16.863Z,1008.50
2018-08-18T08:49:16.878Z,1008.49
2018-08-18T08:50:16.899Z,1008.44
2018-08-18T08:51:16.924Z,1008.41
2018-08-18T08:52:16.956Z,1008.42
2018-08-18T08:53:16.977Z,1008.42
2018-08-18T08:54:16.999Z,1008.44
2018-08-18T08:55:17.025Z,1008.44
2018-08-18T08:56:17.053Z,1008.44
2018-08-18T08:57:17.075Z,1008.49
2018-08-18T08:58:17.110Z,1008.52
2018-08-18T08:59:17.130Z,1008.50
2018-08-18T09:00:17.163Z,1008.57
2018-08-18T09:01:17.176Z,1008.61
2018-08-18T09:02:17.208Z,1008.71
2018-08-18T09:03:17.225Z,1008.80
2018-08-18T09:04:17.257Z,1008.88
2018-08-18T09:05:17.279Z,1008.86
2018-08-18T09:06:17.317Z,1008.87
2018-08-18T09:07:17.334Z,1008.90
2018-08-18T09:08:17.358Z,1008.89
2018-08-18T09:09:17.384Z,1008.90
2018-08-18T09:10:17.420Z,1008.82
2018-08-18T09:11:17.430Z,1008.75
2018-08-18T09:12:17.458Z,1008.81
2018-08-18T09:13:17.491Z,1008.91
2018-08-18T09:14:17.508Z,1008.98
2018-08-18T09:15:17.530Z,1008.86
2018-08-18T09:16:17.561Z,1008.79
2018-08-18T09:17:17.585Z,1008.77
2018-08-18T09:18:17.611Z,1008.71
2018-08-18T09:19:17.633Z,1008.67
2018-08-18T09:20:17.656Z,1008.64
2018-08-18T09:21:17.681Z,1008.64
2018-08-18T09:22:17.706Z,1008.61
2018-08-18T09:23:17.730Z,1008.55
2018-08-18T09:24:17.756Z,1008.49
2018-08-18T09:25:17.779Z,1008.45
2018-08-18T09:26:17.810Z,1008.49
2018-08-18T09:27:17.829Z,1008.57
2018-08-18T09:28:17.881Z,1008.57
2018-08-18T09:29:17.883Z,1008.56
2018-08-18T09:30:17.902Z,1008.53
2018-08-18T09:31:17.928Z,1008.48
2018-08-18T09:32:17.951Z,1008.44
2018-08-18T09:33:17.980Z,1008.42
2018-08-18T09:34:18.003Z,1008.43
2018-08-18T09:35:18.026Z,1008.36
2018-08-18T09:36:18.058Z,1008.30
2018-08-18T09:37:18.080Z,1008.31
2018-08-18T09:38:18.099Z,1008.32
2018-08-18T09:39:18.123Z,1008.31
2018-08-18T09:40:18.148Z,1008.26
2018-08-18T09:41:18.175Z,1008.24
2018-08-18T09:42:18.197Z,1008.24
2018-08-18T09:43:18.226Z,1008.28
2018-08-18T09:44:18.248Z,1008.22
2018-08-18T09:45:18.307Z,1008.26
2018-08-18T09:46:18.357Z,1008.23
2018-08-18T09:47:18.327Z,1008.22
2018-08-18T09:48:18.345Z,1008.22
2018-08-18T09:49:18.376Z,1008.20
2018-08-18T09:50:18.405Z,1008.20
2018-08-18T09:51:18.424Z,1008.22
2018-08-18T09:52:18.444Z,1008.24
2018-08-18T09:53:18.470Z,1008.19
2018-08-18T09:54:18.493Z,1008.18
2018-08-18T09:55:18.513Z,1008.16
2018-08-18T09:56:18.546Z,1008.19
2018-08-18T09:57:18.565Z,1008.22
2018-08-18T09:58:18.589Z,1008.16
2018-08-18T09:59:18.685Z,1008.08
2018-08-18T10:00:18.636Z,1008.16
2018-08-18T10:01:18.662Z,1008.18
2018-08-18T10:02:18.685Z,1008.14
2018-08-18T10:03:18.710Z,1008.13
2018-08-18T10:04:18.765Z,1008.12
2018-08-18T10:05:18.762Z,1008.11
2018-08-18T10:06:18.871Z,1008.08
2018-08-18T10:07:18.809Z,1008.11
2018-08-18T10:08:18.834Z,1008.12
2018-08-18T10:09:18.989Z,1008.12
2018-08-18T10:10:18.882Z,1008.15
2018-08-18T10:11:18.905Z,1008.11
2018-08-18T10:12:18.932Z,1008.14
2018-08-18T10:13:18.957Z,1008.10
2018-08-18T10:14:18.979Z,1008.04
2018-08-18T10:15:19.022Z,1008.09
2018-08-18T10:16:19.028Z,1008.09
2018-08-18T10:17:19.052Z,1008.11
2018-08-18T10:18:19.074Z,1008.11
2018-08-18T10:19:19.098Z,1008.08
2018-08-18T10:20:19.122Z,1008.07
2018-08-18T10:21:19.152Z,1008.06
2018-08-18T10:22:19.172Z,1008.00
2018-08-18T10:23:19.196Z,1008.04
2018-08-18T10:24:19.225Z,1007.99
2018-08-18T10:25:19.246Z,1008.01
2018-08-18T10:26:19.270Z,1008.02
2018-08-18T10:27:19.362Z,1008.00
2018-08-18T10:28:19.322Z,1008.04
2018-08-18T10:29:19.344Z,1008.00
2018-08-18T10:30:19.368Z,1008.06
2018-08-18T10:31:19.411Z,1007.99
2018-08-18T10:32:19.419Z,1007.99
2018-08-18T10:33:19.493Z,1007.97
2018-08-18T10:34:19.468Z,1007.98
2018-08-18T10:35:19.492Z,1007.97
2018-08-18T10:36:19.515Z,1007.96
2018-08-18T10:37:19.542Z,1007.96
2018-08-18T10:38:19.565Z,1007.97
2018-08-18T10:39:19.587Z,1007.96
2018-08-18T10:40:19.614Z,1007.97
2018-08-18T10:41:19.654Z,1007.98
2018-08-18T10:42:19.669Z,1008.01
2018-08-18T10:43:19.683Z,1008.02
2018-08-18T10:44:19.713Z,1007.99
2018-08-18T10:45:19.735Z,1007.95
2018-08-18T10:46:19.756Z,1008.00
2018-08-18T10:47:19.886Z,1007.93
2018-08-18T10:48:19.809Z,1007.98
2018-08-18T10:49:19.832Z,1007.90
2018-08-18T10:50:19.856Z,1007.92
2018-08-18T10:51:19.888Z,1007.87
2018-08-18T10:52:19.907Z,1007.90
2018-08-18T10:53:19.930Z,1007.85
2018-08-18T10:54:19.964Z,1007.92
2018-08-18T10:55:19.978Z,1007.87
2018-08-18T10:56:20.012Z,1007.95
2018-08-18T10:57:20.039Z,1007.90
2018-08-18T10:58:20.052Z,1007.86
2018-08-18T10:59:20.080Z,1007.85
2018-08-18T11:00:20.103Z,1007.86
2018-08-18T11:01:20.129Z,1007.83
2018-08-18T11:02:20.152Z,1007.80
2018-08-18T11:03:20.173Z,1007.88
2018-08-18T11:04:20.201Z,1007.89
2018-08-18T11:05:20.228Z,1007.99
2018-08-18T11:06:20.249Z,1007.96
2018-08-18T11:07:20.272Z,1007.98
2018-08-18T11:08:20.302Z,1007.98
2018-08-18T11:09:20.319Z,1007.92
2018-08-18T11:10:20.347Z,1007.91
2018-08-18T11:11:20.375Z,1007.96
2018-08-18T11:12:20.391Z,1007.93
2018-08-18T11:13:20.417Z,1007.92
2018-08-18T11:14:20.439Z,1007.86
2018-08-18T11:15:20.468Z,1007.89
2018-08-18T11:16:20.495Z,1007.90
2018-08-18T11:17:20.517Z,1007.88
2018-08-18T11:18:20.547Z,1007.89
2018-08-18T11:19:20.604Z,1007.90
2018-08-18T11:20:20.601Z,1007.88
2018-08-18T11:21:20.611Z,1007.86
2018-08-18T11:22:20.689Z,1007.84
2018-08-18T11:23:20.660Z,1007.86
2018-08-18T11:24:20.694Z,1007.89
2018-08-18T11:25:20.708Z,1007.84
2018-08-18T11:26:20.731Z,1007.83
2018-08-18T11:27:20.763Z,1007.80
2018-08-18T11:28:20.877Z,1007.81
2018-08-18T11:29:20.806Z,1007.84
2018-08-18T11:30:20.839Z,1007.79
2018-08-18T11:31:20.856Z,1007.81
2018-08-18T11:32:20.879Z,1007.88
2018-08-18T11:33:20.905Z,1007.86
2018-08-18T11:34:20.928Z,1007.88
2018-08-18T11:35:20.951Z,1007.95
2018-08-18T11:36:20.977Z,1007.87
2018-08-18T11:37:21.003Z,1007.86
2018-08-18T11:38:21.026Z,1007.82
2018-08-18T11:39:21.052Z,1007.79
2018-08-18T11:40:21.082Z,1007.76
2018-08-18T11:41:21.100Z,1007.73
2018-08-18T11:42:21.124Z,1007.79
2018-08-18T11:43:21.147Z,1007.81
2018-08-18T11:44:21.170Z,1007.79
2018-08-18T11:45:21.197Z,1007.80
2018-08-18T11:46:21.217Z,1007.77
2018-08-18T11:47:21.245Z,1007.80
2018-08-18T11:48:21.269Z,1007.77
2018-08-18T11:49:21.293Z,1007.75
2018-08-18T11:50:21.416Z,1007.77
2018-08-18T11:51:21.341Z,1007.68
2018-08-18T11:52:21.363Z,1007.63
2018-08-18T11:53:21.439Z,1007.64
2018-08-18T11:54:21.412Z,1007.64
2018-08-18T11:55:21.463Z,1007.69
2018-08-18T11:56:21.462Z,1007.69
2018-08-18T11:57:21.522Z,1007.66
2018-08-18T11:58:21.508Z,1007.65
2018-08-18T11:59:21.534Z,1007.63
2018-08-18T12:00:21.603Z,1007.65
2018-08-18T12:01:21.584Z,1007.65
2018-08-18T12:02:21.675Z,1007.66
2018-08-18T12:03:21.648Z,1007.59
2018-08-18T12:04:21.656Z,1007.60
2018-08-18T12:05:21.718Z,1007.57
2018-08-18T12:06:21.701Z,1007.60
2018-08-18T12:07:21.727Z,1007.54
2018-08-18T12:08:21.753Z,1007.52
2018-08-18T12:09:21.784Z,1007.57
2018-08-18T12:10:21.846Z,1007.59
2018-08-18T12:11:21.830Z,1007.61
2018-08-18T12:12:21.848Z,1007.60
2018-08-18T12:13:21.873Z,1007.57